sensor_id;sensor_type;location;lat;lon;timestamp;P1;durP1;ratioP1;P2;durP2;ratioP2
40611;SDS011;26317;44.894;20.286;2024-01-06T00:00:03;13.40;;;8.65;;
40611;SDS011;26317;44.894;20.286;2024-01-06T00:02:38;13.57;;;9.10;;
40611;SDS011;26317;44.894;20.286;2024-01-06T00:05:08;18.40;;;9.88;;
40611;SDS011;26317;44.894;20.286;2024-01-06T00:07:39;13.73;;;8.85;;
40611;SDS011;26317;44.894;20.286;2024-01-06T00:10:09;13.63;;;8.85;;
40611;SDS011;26317;44.894;20.286;2024-01-06T00:12:46;14.60;;;9.02;;
40611;SDS011;26317;44.894;20.286;2024-01-06T00:15:16;14.25;;;9.32;;
40611;SDS011;26317;44.894;20.286;2024-01-06T00:17:47;14.23;;;8.73;;
40611;SDS011;26317;44.894;20.286;2024-01-06T00:20:18;14.02;;;9.77;;
40611;SDS011;26317;44.894;20.286;2024-01-06T00:22:48;13.77;;;8.02;;
40611;SDS011;26317;44.894;20.286;2024-01-06T00:25:18;15.23;;;7.78;;
40611;SDS011;26317;44.894;20.286;2024-01-06T00:27:49;14.82;;;8.38;;
40611;SDS011;26317;44.894;20.286;2024-01-06T00:30:19;12.80;;;8.57;;
40611;SDS011;26317;44.894;20.286;2024-01-06T00:32:50;14.35;;;8.18;;
40611;SDS011;26317;44.894;20.286;2024-01-06T00:35:21;15.30;;;8.63;;
40611;SDS011;26317;44.894;20.286;2024-01-06T00:37:51;16.30;;;8.60;;
40611;SDS011;26317;44.894;20.286;2024-01-06T00:40:22;15.80;;;8.20;;
40611;SDS011;26317;44.894;20.286;2024-01-06T00:42:55;10.77;;;7.82;;
40611;SDS011;26317;44.894;20.286;2024-01-06T00:45:26;12.20;;;7.32;;
40611;SDS011;26317;44.894;20.286;2024-01-06T00:47:57;12.50;;;6.88;;
40611;SDS011;26317;44.894;20.286;2024-01-06T00:50:28;14.45;;;7.75;;
40611;SDS011;26317;44.894;20.286;2024-01-06T00:52:58;13.65;;;6.53;;
40611;SDS011;26317;44.894;20.286;2024-01-06T00:55:29;12.07;;;8.10;;
40611;SDS011;26317;44.894;20.286;2024-01-06T00:58:02;13.98;;;7.18;;
40611;SDS011;26317;44.894;20.286;2024-01-06T01:00:33;10.65;;;6.13;;
40611;SDS011;26317;44.894;20.286;2024-01-06T01:03:04;11.68;;;6.03;;
40611;SDS011;26317;44.894;20.286;2024-01-06T01:05:34;10.13;;;5.53;;
40611;SDS011;26317;44.894;20.286;2024-01-06T01:08:05;12.98;;;5.97;;
40611;SDS011;26317;44.894;20.286;2024-01-06T01:10:36;8.77;;;5.43;;
40611;SDS011;26317;44.894;20.286;2024-01-06T01:13:09;10.32;;;5.40;;
40611;SDS011;26317;44.894;20.286;2024-01-06T01:15:40;13.80;;;5.82;;
40611;SDS011;26317;44.894;20.286;2024-01-06T01:18:10;7.55;;;5.15;;
40611;SDS011;26317;44.894;20.286;2024-01-06T01:20:41;6.82;;;4.95;;
40611;SDS011;26317;44.894;20.286;2024-01-06T01:23:12;8.10;;;5.28;;
40611;SDS011;26317;44.894;20.286;2024-01-06T01:25:42;7.68;;;5.18;;
40611;SDS011;26317;44.894;20.286;2024-01-06T01:28:16;6.15;;;4.22;;
40611;SDS011;26317;44.894;20.286;2024-01-06T01:30:46;10.10;;;4.57;;
40611;SDS011;26317;44.894;20.286;2024-01-06T01:33:17;6.60;;;4.32;;
40611;SDS011;26317;44.894;20.286;2024-01-06T01:35:50;6.63;;;4.35;;
40611;SDS011;26317;44.894;20.286;2024-01-06T01:38:21;5.60;;;4.05;;
40611;SDS011;26317;44.894;20.286;2024-01-06T01:40:51;8.15;;;3.92;;
40611;SDS011;26317;44.894;20.286;2024-01-06T01:43:24;6.45;;;3.97;;
40611;SDS011;26317;44.894;20.286;2024-01-06T01:45:56;7.63;;;4.57;;
40611;SDS011;26317;44.894;20.286;2024-01-06T01:48:26;5.15;;;3.92;;
40611;SDS011;26317;44.894;20.286;2024-01-06T01:50:58;7.90;;;4.43;;
40611;SDS011;26317;44.894;20.286;2024-01-06T01:53:28;8.50;;;4.03;;
40611;SDS011;26317;44.894;20.286;2024-01-06T01:56:01;9.70;;;4.85;;
40611;SDS011;26317;44.894;20.286;2024-01-06T01:58:36;8.50;;;4.88;;
40611;SDS011;26317;44.894;20.286;2024-01-06T02:01:07;8.18;;;4.40;;
40611;SDS011;26317;44.894;20.286;2024-01-06T02:03:39;8.30;;;4.43;;
40611;SDS011;26317;44.894;20.286;2024-01-06T02:06:12;8.85;;;4.50;;
40611;SDS011;26317;44.894;20.286;2024-01-06T02:08:42;7.57;;;4.00;;
40611;SDS011;26317;44.894;20.286;2024-01-06T02:11:13;7.13;;;4.30;;
40611;SDS011;26317;44.894;20.286;2024-01-06T02:13:46;9.00;;;4.72;;
40611;SDS011;26317;44.894;20.286;2024-01-06T02:16:17;6.72;;;4.40;;
40611;SDS011;26317;44.894;20.286;2024-01-06T02:18:47;7.53;;;3.67;;
40611;SDS011;26317;44.894;20.286;2024-01-06T02:21:18;7.35;;;4.43;;
40611;SDS011;26317;44.894;20.286;2024-01-06T02:23:54;6.45;;;3.97;;
40611;SDS011;26317;44.894;20.286;2024-01-06T02:26:24;9.35;;;4.45;;
40611;SDS011;26317;44.894;20.286;2024-01-06T02:28:55;10.27;;;5.05;;
40611;SDS011;26317;44.894;20.286;2024-01-06T02:31:26;7.38;;;3.55;;
40611;SDS011;26317;44.894;20.286;2024-01-06T02:33:57;8.63;;;4.50;;
40611;SDS011;26317;44.894;20.286;2024-01-06T02:36:28;5.70;;;4.10;;
40611;SDS011;26317;44.894;20.286;2024-01-06T02:39:01;9.52;;;3.58;;
40611;SDS011;26317;44.894;20.286;2024-01-06T02:41:31;5.07;;;3.50;;
40611;SDS011;26317;44.894;20.286;2024-01-06T02:44:02;8.13;;;4.20;;
40611;SDS011;26317;44.894;20.286;2024-01-06T02:46:36;6.07;;;3.67;;
40611;SDS011;26317;44.894;20.286;2024-01-06T02:49:07;5.30;;;4.07;;
40611;SDS011;26317;44.894;20.286;2024-01-06T02:51:38;7.15;;;3.75;;
40611;SDS011;26317;44.894;20.286;2024-01-06T02:54:11;6.60;;;3.92;;
40611;SDS011;26317;44.894;20.286;2024-01-06T02:56:41;5.43;;;3.67;;
40611;SDS011;26317;44.894;20.286;2024-01-06T02:59:12;7.20;;;4.05;;
40611;SDS011;26317;44.894;20.286;2024-01-06T03:01:42;5.38;;;3.50;;
40611;SDS011;26317;44.894;20.286;2024-01-06T03:04:13;5.78;;;3.72;;
40611;SDS011;26317;44.894;20.286;2024-01-06T03:06:43;7.88;;;3.63;;
40611;SDS011;26317;44.894;20.286;2024-01-06T03:09:22;6.20;;;3.92;;
40611;SDS011;26317;44.894;20.286;2024-01-06T03:11:52;5.43;;;3.85;;
40611;SDS011;26317;44.894;20.286;2024-01-06T03:14:23;6.45;;;4.53;;
40611;SDS011;26317;44.894;20.286;2024-01-06T03:16:53;5.13;;;3.90;;
40611;SDS011;26317;44.894;20.286;2024-01-06T03:19:24;6.82;;;3.92;;
40611;SDS011;26317;44.894;20.286;2024-01-06T03:21:55;6.28;;;3.70;;
40611;SDS011;26317;44.894;20.286;2024-01-06T03:24:28;6.35;;;3.75;;
40611;SDS011;26317;44.894;20.286;2024-01-06T03:26:59;7.72;;;4.75;;
40611;SDS011;26317;44.894;20.286;2024-01-06T03:29:29;6.18;;;3.38;;
40611;SDS011;26317;44.894;20.286;2024-01-06T03:32:00;8.57;;;3.75;;
40611;SDS011;26317;44.894;20.286;2024-01-06T03:34:30;7.35;;;4.00;;
40611;SDS011;26317;44.894;20.286;2024-01-06T03:37:01;7.07;;;4.00;;
40611;SDS011;26317;44.894;20.286;2024-01-06T03:39:34;6.13;;;4.40;;
40611;SDS011;26317;44.894;20.286;2024-01-06T03:42:05;7.20;;;3.88;;
40611;SDS011;26317;44.894;20.286;2024-01-06T03:44:36;7.70;;;4.28;;
40611;SDS011;26317;44.894;20.286;2024-01-06T03:47:06;8.20;;;4.03;;
40611;SDS011;26317;44.894;20.286;2024-01-06T03:49:36;5.93;;;4.25;;
40611;SDS011;26317;44.894;20.286;2024-01-06T03:52:07;6.78;;;4.45;;
40611;SDS011;26317;44.894;20.286;2024-01-06T03:54:40;5.88;;;3.63;;
40611;SDS011;26317;44.894;20.286;2024-01-06T03:57:11;8.20;;;4.30;;
40611;SDS011;26317;44.894;20.286;2024-01-06T03:59:41;6.65;;;4.10;;
40611;SDS011;26317;44.894;20.286;2024-01-06T04:04:42;6.22;;;3.63;;
40611;SDS011;26317;44.894;20.286;2024-01-06T04:07:13;6.80;;;3.85;;
40611;SDS011;26317;44.894;20.286;2024-01-06T04:09:46;6.82;;;3.40;;
40611;SDS011;26317;44.894;20.286;2024-01-06T04:12:17;6.40;;;3.47;;
40611;SDS011;26317;44.894;20.286;2024-01-06T04:14:47;4.97;;;3.38;;
40611;SDS011;26317;44.894;20.286;2024-01-06T04:17:18;6.38;;;3.33;;
40611;SDS011;26317;44.894;20.286;2024-01-06T04:19:49;5.75;;;3.30;;
40611;SDS011;26317;44.894;20.286;2024-01-06T04:22:19;7.47;;;4.00;;
40611;SDS011;26317;44.894;20.286;2024-01-06T04:24:52;5.97;;;3.65;;
40611;SDS011;26317;44.894;20.286;2024-01-06T04:27:23;8.05;;;4.13;;
40611;SDS011;26317;44.894;20.286;2024-01-06T04:29:53;3.58;;;2.83;;
40611;SDS011;26317;44.894;20.286;2024-01-06T04:32:24;5.68;;;3.83;;
40611;SDS011;26317;44.894;20.286;2024-01-06T04:34:54;6.78;;;3.83;;
40611;SDS011;26317;44.894;20.286;2024-01-06T04:37:25;5.32;;;3.67;;
40611;SDS011;26317;44.894;20.286;2024-01-06T04:39:58;6.88;;;4.05;;
40611;SDS011;26317;44.894;20.286;2024-01-06T04:42:29;5.45;;;3.35;;
40611;SDS011;26317;44.894;20.286;2024-01-06T04:45:00;5.55;;;3.42;;
40611;SDS011;26317;44.894;20.286;2024-01-06T04:47:31;5.43;;;3.15;;
40611;SDS011;26317;44.894;20.286;2024-01-06T04:50:01;4.40;;;2.95;;
40611;SDS011;26317;44.894;20.286;2024-01-06T04:52:32;6.28;;;3.65;;
40611;SDS011;26317;44.894;20.286;2024-01-06T04:55:06;5.75;;;3.47;;
40611;SDS011;26317;44.894;20.286;2024-01-06T04:57:37;5.35;;;3.63;;
40611;SDS011;26317;44.894;20.286;2024-01-06T05:00:08;7.53;;;4.10;;
40611;SDS011;26317;44.894;20.286;2024-01-06T05:02:39;7.13;;;4.05;;
40611;SDS011;26317;44.894;20.286;2024-01-06T05:05:09;7.30;;;4.15;;
40611;SDS011;26317;44.894;20.286;2024-01-06T05:07:40;5.88;;;3.58;;
40611;SDS011;26317;44.894;20.286;2024-01-06T05:10:13;9.07;;;4.15;;
40611;SDS011;26317;44.894;20.286;2024-01-06T05:12:44;5.40;;;3.25;;
40611;SDS011;26317;44.894;20.286;2024-01-06T05:15:14;4.97;;;3.47;;
40611;SDS011;26317;44.894;20.286;2024-01-06T05:17:45;6.20;;;3.67;;
40611;SDS011;26317;44.894;20.286;2024-01-06T05:20:16;4.85;;;3.75;;
40611;SDS011;26317;44.894;20.286;2024-01-06T05:22:46;7.22;;;3.58;;
40611;SDS011;26317;44.894;20.286;2024-01-06T05:25:19;4.50;;;3.45;;
40611;SDS011;26317;44.894;20.286;2024-01-06T05:27:50;6.13;;;3.50;;
40611;SDS011;26317;44.894;20.286;2024-01-06T05:30:20;7.43;;;3.83;;
40611;SDS011;26317;44.894;20.286;2024-01-06T05:32:51;5.10;;;3.35;;
40611;SDS011;26317;44.894;20.286;2024-01-06T05:35:21;6.22;;;3.95;;
40611;SDS011;26317;44.894;20.286;2024-01-06T05:40:25;9.80;;;4.40;;
40611;SDS011;26317;44.894;20.286;2024-01-06T05:42:55;7.07;;;3.83;;
40611;SDS011;26317;44.894;20.286;2024-01-06T05:45:26;7.70;;;3.55;;
40611;SDS011;26317;44.894;20.286;2024-01-06T05:47:57;6.25;;;3.33;;
40611;SDS011;26317;44.894;20.286;2024-01-06T05:50:28;5.00;;;3.80;;
40611;SDS011;26317;44.894;20.286;2024-01-06T05:52:58;7.57;;;3.83;;
40611;SDS011;26317;44.894;20.286;2024-01-06T05:55:31;7.75;;;3.47;;
40611;SDS011;26317;44.894;20.286;2024-01-06T05:58:02;5.43;;;3.30;;
40611;SDS011;26317;44.894;20.286;2024-01-06T06:00:33;4.75;;;3.47;;
40611;SDS011;26317;44.894;20.286;2024-01-06T06:03:04;10.05;;;3.45;;
40611;SDS011;26317;44.894;20.286;2024-01-06T06:05:34;6.85;;;3.55;;
40611;SDS011;26317;44.894;20.286;2024-01-06T06:08:05;5.03;;;3.05;;
40611;SDS011;26317;44.894;20.286;2024-01-06T06:10:38;4.45;;;3.78;;
40611;SDS011;26317;44.894;20.286;2024-01-06T06:13:27;7.32;;;3.53;;
40611;SDS011;26317;44.894;20.286;2024-01-06T06:15:58;6.88;;;3.97;;
40611;SDS011;26317;44.894;20.286;2024-01-06T06:18:29;6.32;;;4.20;;
40611;SDS011;26317;44.894;20.286;2024-01-06T06:21:00;7.80;;;4.40;;
40611;SDS011;26317;44.894;20.286;2024-01-06T06:23:30;8.50;;;5.32;;
40611;SDS011;26317;44.894;20.286;2024-01-06T06:26:06;6.20;;;4.35;;
40611;SDS011;26317;44.894;20.286;2024-01-06T06:28:38;7.90;;;6.03;;
40611;SDS011;26317;44.894;20.286;2024-01-06T06:31:09;8.52;;;6.30;;
40611;SDS011;26317;44.894;20.286;2024-01-06T06:33:43;8.32;;;5.82;;
40611;SDS011;26317;44.894;20.286;2024-01-06T06:36:13;7.35;;;5.03;;
40611;SDS011;26317;44.894;20.286;2024-01-06T06:38:44;12.63;;;5.53;;
40611;SDS011;26317;44.894;20.286;2024-01-06T06:41:17;8.65;;;5.30;;
40611;SDS011;26317;44.894;20.286;2024-01-06T06:43:48;8.32;;;4.95;;
40611;SDS011;26317;44.894;20.286;2024-01-06T06:46:18;9.43;;;5.88;;
40611;SDS011;26317;44.894;20.286;2024-01-06T06:48:49;10.23;;;5.88;;
40611;SDS011;26317;44.894;20.286;2024-01-06T06:51:19;11.10;;;6.40;;
40611;SDS011;26317;44.894;20.286;2024-01-06T06:53:54;8.82;;;6.55;;
40611;SDS011;26317;44.894;20.286;2024-01-06T06:58:58;10.63;;;5.88;;
40611;SDS011;26317;44.894;20.286;2024-01-06T07:01:28;9.93;;;5.90;;
40611;SDS011;26317;44.894;20.286;2024-01-06T07:04:00;8.73;;;5.80;;
40611;SDS011;26317;44.894;20.286;2024-01-06T07:06:31;8.18;;;6.05;;
40611;SDS011;26317;44.894;20.286;2024-01-06T07:09:01;11.05;;;6.68;;
40611;SDS011;26317;44.894;20.286;2024-01-06T07:11:34;15.10;;;7.80;;
40611;SDS011;26317;44.894;20.286;2024-01-06T07:14:05;10.32;;;6.38;;
40611;SDS011;26317;44.894;20.286;2024-01-06T07:16:35;9.57;;;5.55;;
40611;SDS011;26317;44.894;20.286;2024-01-06T07:19:06;7.18;;;4.15;;
40611;SDS011;26317;44.894;20.286;2024-01-06T07:21:38;10.73;;;4.68;;
40611;SDS011;26317;44.894;20.286;2024-01-06T07:24:08;7.80;;;4.80;;
40611;SDS011;26317;44.894;20.286;2024-01-06T07:26:43;12.45;;;4.72;;
40611;SDS011;26317;44.894;20.286;2024-01-06T07:29:13;8.13;;;4.50;;
40611;SDS011;26317;44.894;20.286;2024-01-06T07:31:43;8.85;;;4.55;;
40611;SDS011;26317;44.894;20.286;2024-01-06T07:34:14;6.90;;;4.20;;
40611;SDS011;26317;44.894;20.286;2024-01-06T07:36:45;6.53;;;4.47;;
40611;SDS011;26317;44.894;20.286;2024-01-06T07:39:16;6.72;;;3.97;;
40611;SDS011;26317;44.894;20.286;2024-01-06T07:41:49;6.45;;;4.68;;
40611;SDS011;26317;44.894;20.286;2024-01-06T07:44:19;6.47;;;4.00;;
40611;SDS011;26317;44.894;20.286;2024-01-06T07:46:52;5.53;;;3.65;;
40611;SDS011;26317;44.894;20.286;2024-01-06T07:49:22;6.03;;;3.72;;
40611;SDS011;26317;44.894;20.286;2024-01-06T07:51:53;5.82;;;3.92;;
40611;SDS011;26317;44.894;20.286;2024-01-06T07:54:23;6.65;;;4.05;;
40611;SDS011;26317;44.894;20.286;2024-01-06T07:57:00;8.20;;;4.05;;
40611;SDS011;26317;44.894;20.286;2024-01-06T07:59:30;7.03;;;3.88;;
40611;SDS011;26317;44.894;20.286;2024-01-06T08:02:01;9.38;;;4.22;;
40611;SDS011;26317;44.894;20.286;2024-01-06T08:04:31;9.85;;;4.75;;
40611;SDS011;26317;44.894;20.286;2024-01-06T08:07:03;10.77;;;5.38;;
40611;SDS011;26317;44.894;20.286;2024-01-06T08:09:34;7.50;;;4.53;;
40611;SDS011;26317;44.894;20.286;2024-01-06T08:12:10;7.05;;;4.13;;
40611;SDS011;26317;44.894;20.286;2024-01-06T08:14:41;7.10;;;4.05;;
40611;SDS011;26317;44.894;20.286;2024-01-06T08:17:11;5.63;;;4.00;;
40611;SDS011;26317;44.894;20.286;2024-01-06T08:19:45;7.03;;;4.65;;
40611;SDS011;26317;44.894;20.286;2024-01-06T08:22:16;10.80;;;4.32;;
40611;SDS011;26317;44.894;20.286;2024-01-06T08:24:46;6.43;;;4.43;;
40611;SDS011;26317;44.894;20.286;2024-01-06T08:27:19;8.68;;;4.60;;
40611;SDS011;26317;44.894;20.286;2024-01-06T08:29:51;6.95;;;4.38;;
40611;SDS011;26317;44.894;20.286;2024-01-06T08:32:21;7.90;;;4.75;;
40611;SDS011;26317;44.894;20.286;2024-01-06T08:34:52;7.28;;;4.75;;
40611;SDS011;26317;44.894;20.286;2024-01-06T08:37:23;7.45;;;4.28;;
40611;SDS011;26317;44.894;20.286;2024-01-06T08:39:53;6.88;;;4.03;;
40611;SDS011;26317;44.894;20.286;2024-01-06T08:42:27;7.97;;;4.30;;
40611;SDS011;26317;44.894;20.286;2024-01-06T08:44:57;8.68;;;4.82;;
40611;SDS011;26317;44.894;20.286;2024-01-06T08:47:30;7.78;;;4.38;;
40611;SDS011;26317;44.894;20.286;2024-01-06T08:50:01;5.53;;;4.30;;
40611;SDS011;26317;44.894;20.286;2024-01-06T08:52:32;12.15;;;5.30;;
40611;SDS011;26317;44.894;20.286;2024-01-06T08:55:03;10.50;;;6.97;;
40611;SDS011;26317;44.894;20.286;2024-01-06T08:57:38;9.40;;;6.72;;
40611;SDS011;26317;44.894;20.286;2024-01-06T09:00:09;9.13;;;5.88;;
40611;SDS011;26317;44.894;20.286;2024-01-06T09:02:41;10.77;;;5.57;;
40611;SDS011;26317;44.894;20.286;2024-01-06T09:05:11;10.10;;;6.90;;
40611;SDS011;26317;44.894;20.286;2024-01-06T09:07:42;12.38;;;7.88;;
40611;SDS011;26317;44.894;20.286;2024-01-06T09:10:21;13.45;;;8.55;;
40611;SDS011;26317;44.894;20.286;2024-01-06T09:12:54;11.48;;;8.48;;
40611;SDS011;26317;44.894;20.286;2024-01-06T09:15:24;16.08;;;9.63;;
40611;SDS011;26317;44.894;20.286;2024-01-06T09:17:55;14.13;;;9.50;;
40611;SDS011;26317;44.894;20.286;2024-01-06T09:20:26;12.23;;;9.25;;
40611;SDS011;26317;44.894;20.286;2024-01-06T09:22:56;15.45;;;11.32;;
40611;SDS011;26317;44.894;20.286;2024-01-06T09:25:27;10.10;;;6.97;;
40611;SDS011;26317;44.894;20.286;2024-01-06T09:28:00;14.95;;;11.15;;
40611;SDS011;26317;44.894;20.286;2024-01-06T09:30:31;13.32;;;8.23;;
40611;SDS011;26317;44.894;20.286;2024-01-06T09:33:02;11.30;;;8.07;;
40611;SDS011;26317;44.894;20.286;2024-01-06T09:35:34;15.88;;;8.15;;
40611;SDS011;26317;44.894;20.286;2024-01-06T09:38:05;19.38;;;12.25;;
40611;SDS011;26317;44.894;20.286;2024-01-06T09:40:35;20.98;;;15.05;;
40611;SDS011;26317;44.894;20.286;2024-01-06T09:43:15;9.40;;;6.90;;
40611;SDS011;26317;44.894;20.286;2024-01-06T09:45:46;8.38;;;6.57;;
40611;SDS011;26317;44.894;20.286;2024-01-06T09:48:29;13.18;;;10.88;;
40611;SDS011;26317;44.894;20.286;2024-01-06T09:51:01;11.45;;;6.43;;
40611;SDS011;26317;44.894;20.286;2024-01-06T09:53:34;9.77;;;6.60;;
40611;SDS011;26317;44.894;20.286;2024-01-06T09:56:06;23.55;;;15.00;;
40611;SDS011;26317;44.894;20.286;2024-01-06T09:58:40;7.43;;;5.07;;
40611;SDS011;26317;44.894;20.286;2024-01-06T10:01:11;7.43;;;5.43;;
40611;SDS011;26317;44.894;20.286;2024-01-06T10:03:43;12.63;;;6.18;;
40611;SDS011;26317;44.894;20.286;2024-01-06T10:06:18;8.25;;;5.20;;
40611;SDS011;26317;44.894;20.286;2024-01-06T10:08:49;9.75;;;6.40;;
40611;SDS011;26317;44.894;20.286;2024-01-06T10:11:22;22.48;;;15.15;;
40611;SDS011;26317;44.894;20.286;2024-01-06T10:13:56;17.88;;;10.52;;
40611;SDS011;26317;44.894;20.286;2024-01-06T10:16:32;18.27;;;11.48;;
40611;SDS011;26317;44.894;20.286;2024-01-06T10:19:04;16.70;;;10.38;;
40611;SDS011;26317;44.894;20.286;2024-01-06T10:21:35;18.00;;;9.05;;
40611;SDS011;26317;44.894;20.286;2024-01-06T10:24:07;15.13;;;8.95;;
40611;SDS011;26317;44.894;20.286;2024-01-06T10:29:11;12.23;;;8.35;;
40611;SDS011;26317;44.894;20.286;2024-01-06T10:31:43;11.70;;;7.18;;
40611;SDS011;26317;44.894;20.286;2024-01-06T10:34:19;12.45;;;9.02;;
40611;SDS011;26317;44.894;20.286;2024-01-06T10:36:50;11.63;;;7.22;;
40611;SDS011;26317;44.894;20.286;2024-01-06T10:39:21;14.38;;;11.23;;
40611;SDS011;26317;44.894;20.286;2024-01-06T10:41:53;12.88;;;8.32;;
40611;SDS011;26317;44.894;20.286;2024-01-06T10:44:28;12.40;;;6.55;;
40611;SDS011;26317;44.894;20.286;2024-01-06T10:47:00;12.10;;;7.28;;
40611;SDS011;26317;44.894;20.286;2024-01-06T10:49:32;9.95;;;5.97;;
40611;SDS011;26317;44.894;20.286;2024-01-06T10:52:05;12.15;;;7.28;;
40611;SDS011;26317;44.894;20.286;2024-01-06T10:54:36;9.73;;;6.63;;
40611;SDS011;26317;44.894;20.286;2024-01-06T10:57:08;9.40;;;5.53;;
40611;SDS011;26317;44.894;20.286;2024-01-06T10:59:42;8.13;;;6.25;;
40611;SDS011;26317;44.894;20.286;2024-01-06T11:02:15;12.75;;;5.32;;
40611;SDS011;26317;44.894;20.286;2024-01-06T11:04:46;8.00;;;5.55;;
40611;SDS011;26317;44.894;20.286;2024-01-06T11:07:20;8.60;;;5.50;;
40611;SDS011;26317;44.894;20.286;2024-01-06T11:09:56;7.65;;;4.90;;
40611;SDS011;26317;44.894;20.286;2024-01-06T11:12:29;7.70;;;5.32;;
40611;SDS011;26317;44.894;20.286;2024-01-06T11:15:03;15.05;;;7.90;;
40611;SDS011;26317;44.894;20.286;2024-01-06T11:20:23;18.50;;;12.30;;
40611;SDS011;26317;44.894;20.286;2024-01-06T11:22:54;23.52;;;12.98;;
40611;SDS011;26317;44.894;20.286;2024-01-06T11:25:44;20.42;;;12.23;;
40611;SDS011;26317;44.894;20.286;2024-01-06T11:28:16;19.50;;;11.98;;
40611;SDS011;26317;44.894;20.286;2024-01-06T11:30:49;18.25;;;10.20;;
40611;SDS011;26317;44.894;20.286;2024-01-06T11:33:40;19.23;;;12.43;;
40611;SDS011;26317;44.894;20.286;2024-01-06T11:36:12;17.88;;;12.07;;
40611;SDS011;26317;44.894;20.286;2024-01-06T11:38:44;13.95;;;10.35;;
40611;SDS011;26317;44.894;20.286;2024-01-06T11:44:18;20.58;;;12.10;;
40611;SDS011;26317;44.894;20.286;2024-01-06T11:46:52;16.73;;;10.90;;
40611;SDS011;26317;44.894;20.286;2024-01-06T11:49:26;19.42;;;15.32;;
40611;SDS011;26317;44.894;20.286;2024-01-06T11:51:57;18.38;;;12.05;;
40611;SDS011;26317;44.894;20.286;2024-01-06T11:57:00;20.15;;;11.10;;
40611;SDS011;26317;44.894;20.286;2024-01-06T11:59:31;17.58;;;10.77;;
40611;SDS011;26317;44.894;20.286;2024-01-06T12:02:04;19.23;;;12.70;;
40611;SDS011;26317;44.894;20.286;2024-01-06T12:04:35;20.50;;;12.77;;
40611;SDS011;26317;44.894;20.286;2024-01-06T12:07:08;18.55;;;12.50;;
40611;SDS011;26317;44.894;20.286;2024-01-06T12:09:41;15.05;;;11.10;;
40611;SDS011;26317;44.894;20.286;2024-01-06T12:12:12;16.90;;;10.63;;
40611;SDS011;26317;44.894;20.286;2024-01-06T12:14:45;23.35;;;14.43;;
40611;SDS011;26317;44.894;20.286;2024-01-06T12:17:19;17.63;;;11.35;;
40611;SDS011;26317;44.894;20.286;2024-01-06T12:19:51;21.80;;;13.13;;
40611;SDS011;26317;44.894;20.286;2024-01-06T12:22:22;20.73;;;12.73;;
40611;SDS011;26317;44.894;20.286;2024-01-06T12:24:52;17.88;;;13.68;;
40611;SDS011;26317;44.894;20.286;2024-01-06T12:27:24;19.83;;;12.63;;
40611;SDS011;26317;44.894;20.286;2024-01-06T12:29:55;20.17;;;14.43;;
40611;SDS011;26317;44.894;20.286;2024-01-06T12:32:28;18.10;;;11.88;;
40611;SDS011;26317;44.894;20.286;2024-01-06T12:34:59;19.35;;;11.75;;
40611;SDS011;26317;44.894;20.286;2024-01-06T12:37:29;19.95;;;12.07;;
40611;SDS011;26317;44.894;20.286;2024-01-06T12:40:06;13.63;;;10.15;;
40611;SDS011;26317;44.894;20.286;2024-01-06T12:42:39;19.40;;;14.15;;
40611;SDS011;26317;44.894;20.286;2024-01-06T12:45:13;19.10;;;13.07;;
40611;SDS011;26317;44.894;20.286;2024-01-06T12:47:48;22.70;;;12.35;;
40611;SDS011;26317;44.894;20.286;2024-01-06T12:50:19;18.63;;;11.32;;
40611;SDS011;26317;44.894;20.286;2024-01-06T12:52:54;15.85;;;11.25;;
40611;SDS011;26317;44.894;20.286;2024-01-06T12:55:29;18.55;;;12.50;;
40611;SDS011;26317;44.894;20.286;2024-01-06T12:58:02;23.63;;;14.95;;
40611;SDS011;26317;44.894;20.286;2024-01-06T13:00:35;21.17;;;14.00;;
40611;SDS011;26317;44.894;20.286;2024-01-06T13:03:11;19.90;;;13.18;;
40611;SDS011;26317;44.894;20.286;2024-01-06T13:05:42;17.50;;;11.90;;
40611;SDS011;26317;44.894;20.286;2024-01-06T13:08:13;19.63;;;11.65;;
40611;SDS011;26317;44.894;20.286;2024-01-06T13:10:45;15.75;;;10.05;;
40611;SDS011;26317;44.894;20.286;2024-01-06T13:13:16;17.23;;;9.48;;
40611;SDS011;26317;44.894;20.286;2024-01-06T13:15:46;12.95;;;8.77;;
40611;SDS011;26317;44.894;20.286;2024-01-06T13:18:21;13.13;;;8.70;;
40611;SDS011;26317;44.894;20.286;2024-01-06T13:20:56;10.82;;;8.38;;
40611;SDS011;26317;44.894;20.286;2024-01-06T13:23:30;12.77;;;8.27;;
40611;SDS011;26317;44.894;20.286;2024-01-06T13:26:00;13.15;;;7.93;;
40611;SDS011;26317;44.894;20.286;2024-01-06T13:28:31;14.23;;;8.05;;
40611;SDS011;26317;44.894;20.286;2024-01-06T13:31:02;17.98;;;9.38;;
40611;SDS011;26317;44.894;20.286;2024-01-06T13:33:36;11.15;;;8.77;;
40611;SDS011;26317;44.894;20.286;2024-01-06T13:36:08;13.75;;;8.48;;
40611;SDS011;26317;44.894;20.286;2024-01-06T13:38:40;14.38;;;9.35;;
40611;SDS011;26317;44.894;20.286;2024-01-06T13:41:11;14.13;;;9.55;;
40611;SDS011;26317;44.894;20.286;2024-01-06T13:43:44;11.85;;;8.05;;
40611;SDS011;26317;44.894;20.286;2024-01-06T13:46:16;13.57;;;9.00;;
40611;SDS011;26317;44.894;20.286;2024-01-06T13:51:21;16.63;;;9.93;;
40611;SDS011;26317;44.894;20.286;2024-01-06T13:56:22;17.63;;;10.37;;
40611;SDS011;26317;44.894;20.286;2024-01-06T13:58:53;13.75;;;9.27;;
40611;SDS011;26317;44.894;20.286;2024-01-06T14:01:24;17.25;;;11.23;;
40611;SDS011;26317;44.894;20.286;2024-01-06T14:06:28;13.45;;;9.93;;
40611;SDS011;26317;44.894;20.286;2024-01-06T14:09:01;17.38;;;10.40;;
40611;SDS011;26317;44.894;20.286;2024-01-06T14:11:34;16.40;;;10.00;;
40611;SDS011;26317;44.894;20.286;2024-01-06T14:14:06;16.48;;;10.13;;
40611;SDS011;26317;44.894;20.286;2024-01-06T14:19:11;14.75;;;9.48;;
40611;SDS011;26317;44.894;20.286;2024-01-06T14:21:45;12.07;;;8.95;;
40611;SDS011;26317;44.894;20.286;2024-01-06T14:24:17;13.43;;;9.75;;
40611;SDS011;26317;44.894;20.286;2024-01-06T14:26:53;14.40;;;10.55;;
40611;SDS011;26317;44.894;20.286;2024-01-06T14:29:24;16.85;;;9.52;;
40611;SDS011;26317;44.894;20.286;2024-01-06T14:31:55;16.27;;;10.35;;
40611;SDS011;26317;44.894;20.286;2024-01-06T14:34:28;13.48;;;9.52;;
40611;SDS011;26317;44.894;20.286;2024-01-06T14:36:59;14.10;;;10.27;;
40611;SDS011;26317;44.894;20.286;2024-01-06T14:42:02;14.50;;;10.18;;
40611;SDS011;26317;44.894;20.286;2024-01-06T14:44:33;18.17;;;10.57;;
40611;SDS011;26317;44.894;20.286;2024-01-06T14:47:04;14.95;;;11.35;;
40611;SDS011;26317;44.894;20.286;2024-01-06T14:49:38;24.75;;;15.93;;
40611;SDS011;26317;44.894;20.286;2024-01-06T14:52:09;21.65;;;15.40;;
40611;SDS011;26317;44.894;20.286;2024-01-06T14:54:40;21.73;;;16.02;;
40611;SDS011;26317;44.894;20.286;2024-01-06T14:59:42;22.80;;;16.75;;
40611;SDS011;26317;44.894;20.286;2024-01-06T15:02:16;27.23;;;18.88;;
40611;SDS011;26317;44.894;20.286;2024-01-06T15:04:51;24.40;;;16.83;;
40611;SDS011;26317;44.894;20.286;2024-01-06T15:07:23;20.33;;;14.70;;
40611;SDS011;26317;44.894;20.286;2024-01-06T15:09:53;23.25;;;15.55;;
40611;SDS011;26317;44.894;20.286;2024-01-06T15:12:30;20.65;;;13.50;;
40611;SDS011;26317;44.894;20.286;2024-01-06T15:15:01;22.83;;;14.20;;
40611;SDS011;26317;44.894;20.286;2024-01-06T15:20:08;26.20;;;15.02;;
40611;SDS011;26317;44.894;20.286;2024-01-06T15:22:44;20.80;;;13.65;;
40611;SDS011;26317;44.894;20.286;2024-01-06T15:25:15;16.88;;;11.27;;
40611;SDS011;26317;44.894;20.286;2024-01-06T15:27:46;22.60;;;13.27;;